sensor_id;sensor_type;location;lat;lon;timestamp;pressure;altitude;pressure_sealevel;temperature;humidity
49040;BME280;36811;49.732;13.402;2023-02-21T00:02:26;97966.94;;;7.43;72.20
49040;BME280;36811;49.732;13.402;2023-02-21T00:05:10;97960.03;;;7.42;72.35
49040;BME280;36811;49.732;13.402;2023-02-21T00:07:54;97968.31;;;7.46;72.50
49040;BME280;36811;49.732;13.402;2023-02-21T00:10:38;97972.34;;;7.48;72.74
49040;BME280;36811;49.732;13.402;2023-02-21T00:13:22;97977.41;;;7.50;72.33
49040;BME280;36811;49.732;13.402;2023-02-21T00:16:06;97973.13;;;7.49;72.45
49040;BME280;36811;49.732;13.402;2023-02-21T00:18:50;97975.00;;;7.48;72.73
49040;BME280;36811;49.732;13.402;2023-02-21T00:21:34;97963.59;;;7.48;72.91
49040;BME280;36811;49.732;13.402;2023-02-21T00:24:18;97964.63;;;7.47;72.99
49040;BME280;36811;49.732;13.402;2023-02-21T00:27:03;97967.06;;;7.48;72.98
49040;BME280;36811;49.732;13.402;2023-02-21T00:29:49;97953.00;;;7.48;72.97
49040;BME280;36811;49.732;13.402;2023-02-21T00:32:34;97951.75;;;7.50;73.22
49040;BME280;36811;49.732;13.402;2023-02-21T00:35:18;97959.31;;;7.47;73.53
49040;BME280;36811;49.732;13.402;2023-02-21T00:38:03;97958.50;;;7.46;73.40
49040;BME280;36811;49.732;13.402;2023-02-21T00:40:47;97960.38;;;7.46;73.35
49040;BME280;36811;49.732;13.402;2023-02-21T00:43:33;97950.00;;;7.44;73.57
49040;BME280;36811;49.732;13.402;2023-02-21T00:46:19;97945.88;;;7.48;73.83
49040;BME280;36811;49.732;13.402;2023-02-21T00:49:04;97948.63;;;7.53;74.24
49040;BME280;36811;49.732;13.402;2023-02-21T00:51:48;97965.66;;;7.57;73.99
49040;BME280;36811;49.732;13.402;2023-02-21T00:54:33;97972.78;;;7.68;73.40
49040;BME280;36811;49.732;13.402;2023-02-21T00:57:17;97959.19;;;7.77;73.49
49040;BME280;36811;49.732;13.402;2023-02-21T01:00:04;97957.44;;;7.82;73.53
49040;BME280;36811;49.732;13.402;2023-02-21T01:02:49;97960.19;;;7.87;73.02
49040;BME280;36811;49.732;13.402;2023-02-21T01:05:33;97966.63;;;8.03;73.38
49040;BME280;36811;49.732;13.402;2023-02-21T01:08:17;97959.78;;;8.18;72.23
49040;BME280;36811;49.732;13.402;2023-02-21T01:11:01;97959.53;;;8.20;72.41
49040;BME280;36811;49.732;13.402;2023-02-21T01:13:44;97954.56;;;8.23;72.18
49040;BME280;36811;49.732;13.402;2023-02-21T01:16:30;97959.75;;;8.30;72.71
49040;BME280;36811;49.732;13.402;2023-02-21T01:19:15;97955.03;;;8.32;72.63
49040;BME280;36811;49.732;13.402;2023-02-21T01:22:01;97953.06;;;8.39;71.73
49040;BME280;36811;49.732;13.402;2023-02-21T01:24:48;97950.72;;;8.43;72.43
49040;BME280;36811;49.732;13.402;2023-02-21T01:27:33;97950.50;;;8.44;72.25
49040;BME280;36811;49.732;13.402;2023-02-21T01:30:17;97947.59;;;8.46;71.87
49040;BME280;36811;49.732;13.402;2023-02-21T01:33:01;97932.25;;;8.48;71.66
49040;BME280;36811;49.732;13.402;2023-02-21T01:35:45;97919.97;;;8.42;71.76
49040;BME280;36811;49.732;13.402;2023-02-21T01:38:32;97923.44;;;8.42;71.87
49040;BME280;36811;49.732;13.402;2023-02-21T01:41:17;97928.94;;;8.41;72.63
49040;BME280;36811;49.732;13.402;2023-02-21T01:44:05;97928.72;;;8.42;71.80
49040;BME280;36811;49.732;13.402;2023-02-21T01:46:49;97928.72;;;8.42;71.73
49040;BME280;36811;49.732;13.402;2023-02-21T01:49:36;97922.16;;;8.45;72.22
49040;BME280;36811;49.732;13.402;2023-02-21T01:52:23;97930.31;;;8.43;72.03
49040;BME280;36811;49.732;13.402;2023-02-21T01:55:09;97934.91;;;8.48;72.50
49040;BME280;36811;49.732;13.402;2023-02-21T01:57:55;97930.97;;;8.50;71.99
49040;BME280;36811;49.732;13.402;2023-02-21T02:00:40;97914.50;;;8.48;71.87
49040;BME280;36811;49.732;13.402;2023-02-21T02:03:24;97923.53;;;8.47;72.15
49040;BME280;36811;49.732;13.402;2023-02-21T02:06:13;97916.84;;;8.45;72.31
49040;BME280;36811;49.732;13.402;2023-02-21T02:08:57;97919.81;;;8.48;72.57
49040;BME280;36811;49.732;13.402;2023-02-21T02:12:19;97924.88;;;8.50;72.83
49040;BME280;36811;49.732;13.402;2023-02-21T02:37:13;97959.00;;;8.91;71.99
49040;BME280;36811;49.732;13.402;2023-02-21T02:42:45;97953.28;;;8.99;71.75
49040;BME280;36811;49.732;13.402;2023-02-21T02:45:30;97940.03;;;8.99;71.68
49040;BME280;36811;49.732;13.402;2023-02-21T02:50:57;97946.63;;;8.97;70.96
49040;BME280;36811;49.732;13.402;2023-02-21T02:53:27;97940.44;;;8.91;70.86
49040;BME280;36811;49.732;13.402;2023-02-21T02:56:06;97940.34;;;8.86;70.81
49040;BME280;36811;49.732;13.402;2023-02-21T03:04:11;97923.72;;;8.74;71.52
49040;BME280;36811;49.732;13.402;2023-02-21T03:06:53;97923.06;;;8.67;71.69
49040;BME280;36811;49.732;13.402;2023-02-21T03:17:25;97917.97;;;8.49;72.73
49040;BME280;36811;49.732;13.402;2023-02-21T03:19:55;97922.16;;;8.45;72.59
49040;BME280;36811;49.732;13.402;2023-02-21T03:22:25;97909.84;;;8.39;72.75
49040;BME280;36811;49.732;13.402;2023-02-21T03:24:57;97904.69;;;8.32;73.37
49040;BME280;36811;49.732;13.402;2023-02-21T03:27:26;97906.75;;;8.30;73.80
49040;BME280;36811;49.732;13.402;2023-02-21T03:29:55;97903.19;;;8.24;73.17
49040;BME280;36811;49.732;13.402;2023-02-21T03:32:34;97907.59;;;8.19;73.94
49040;BME280;36811;49.732;13.402;2023-02-21T03:35:00;97907.72;;;8.12;74.19
49040;BME280;36811;49.732;13.402;2023-02-21T03:37:32;97910.16;;;8.14;74.11
49040;BME280;36811;49.732;13.402;2023-02-21T03:40:01;97913.28;;;8.11;73.92
49040;BME280;36811;49.732;13.402;2023-02-21T03:42:27;97925.38;;;8.07;73.86
49040;BME280;36811;49.732;13.402;2023-02-21T03:44:53;97912.59;;;8.04;73.96
49040;BME280;36811;49.732;13.402;2023-02-21T03:47:18;97912.50;;;7.99;74.58
49040;BME280;36811;49.732;13.402;2023-02-21T03:49:44;97914.25;;;7.93;74.41
49040;BME280;36811;49.732;13.402;2023-02-21T03:52:11;97917.16;;;7.92;74.58
49040;BME280;36811;49.732;13.402;2023-02-21T03:54:38;97914.16;;;7.88;74.72
49040;BME280;36811;49.732;13.402;2023-02-21T03:57:04;97908.66;;;7.78;75.12
49040;BME280;36811;49.732;13.402;2023-02-21T03:59:29;97923.72;;;7.78;75.05
49040;BME280;36811;49.732;13.402;2023-02-21T04:01:55;97928.91;;;7.73;75.59
49040;BME280;36811;49.732;13.402;2023-02-21T04:04:21;97927.09;;;7.73;75.56
49040;BME280;36811;49.732;13.402;2023-02-21T04:06:46;97926.06;;;7.74;75.59
49040;BME280;36811;49.732;13.402;2023-02-21T04:09:12;97934.31;;;7.78;75.45
49040;BME280;36811;49.732;13.402;2023-02-21T04:11:42;97929.78;;;7.90;75.45
49040;BME280;36811;49.732;13.402;2023-02-21T04:14:08;97937.38;;;7.98;74.91
49040;BME280;36811;49.732;13.402;2023-02-21T04:16:35;97935.75;;;8.08;74.80
49040;BME280;36811;49.732;13.402;2023-02-21T04:19:01;97940.19;;;8.19;74.68
49040;BME280;36811;49.732;13.402;2023-02-21T04:21:27;97944.09;;;8.28;74.52
49040;BME280;36811;49.732;13.402;2023-02-21T04:23:52;97941.22;;;8.30;74.55
49040;BME280;36811;49.732;13.402;2023-02-21T04:26:18;97943.94;;;8.35;74.25
49040;BME280;36811;49.732;13.402;2023-02-21T04:28:44;97951.69;;;8.37;73.78
49040;BME280;36811;49.732;13.402;2023-02-21T04:31:09;97949.94;;;8.42;73.81
49040;BME280;36811;49.732;13.402;2023-02-21T04:33:35;97948.97;;;8.48;73.82
49040;BME280;36811;49.732;13.402;2023-02-21T04:36:00;97941.56;;;8.50;73.26
49040;BME280;36811;49.732;13.402;2023-02-21T04:38:26;97946.88;;;8.50;73.06
49040;BME280;36811;49.732;13.402;2023-02-21T04:40:52;97942.84;;;8.48;73.38
49040;BME280;36811;49.732;13.402;2023-02-21T04:43:18;97942.06;;;8.47;72.85
49040;BME280;36811;49.732;13.402;2023-02-21T04:45:45;97942.44;;;8.39;73.60
49040;BME280;36811;49.732;13.402;2023-02-21T04:48:11;97947.09;;;8.32;73.24
49040;BME280;36811;49.732;13.402;2023-02-21T04:50:36;97929.44;;;8.26;73.73
49040;BME280;36811;49.732;13.402;2023-02-21T04:53:02;97925.59;;;8.17;74.17
49040;BME280;36811;49.732;13.402;2023-02-21T04:55:30;97917.53;;;8.12;74.50
49040;BME280;36811;49.732;13.402;2023-02-21T04:57:56;97908.53;;;8.13;74.08
49040;BME280;36811;49.732;13.402;2023-02-21T05:00:21;97911.75;;;8.15;74.01
49040;BME280;36811;49.732;13.402;2023-02-21T05:02:48;97911.53;;;8.16;74.55
49040;BME280;36811;49.732;13.402;2023-02-21T05:05:13;97900.38;;;8.14;73.88
49040;BME280;36811;49.732;13.402;2023-02-21T05:07:42;97904.28;;;8.12;73.99
49040;BME280;36811;49.732;13.402;2023-02-21T05:10:09;97900.84;;;8.11;74.60
49040;BME280;36811;49.732;13.402;2023-02-21T05:12:36;97897.47;;;8.16;74.31
49040;BME280;36811;49.732;13.402;2023-02-21T05:15:05;97894.34;;;8.19;74.56
49040;BME280;36811;49.732;13.402;2023-02-21T05:17:32;97886.41;;;8.19;74.25
49040;BME280;36811;49.732;13.402;2023-02-21T05:19:57;97893.88;;;8.22;74.25
49040;BME280;36811;49.732;13.402;2023-02-21T05:22:23;97890.97;;;8.23;73.84
49040;BME280;36811;49.732;13.402;2023-02-21T05:24:49;97886.72;;;8.22;73.53
49040;BME280;36811;49.732;13.402;2023-02-21T05:27:18;97886.16;;;8.20;73.41
49040;BME280;36811;49.732;13.402;2023-02-21T05:29:51;97886.63;;;8.29;73.31
49040;BME280;36811;49.732;13.402;2023-02-21T05:32:20;97900.97;;;8.33;73.20
49040;BME280;36811;49.732;13.402;2023-02-21T05:34:46;97899.97;;;8.34;73.34
49040;BME280;36811;49.732;13.402;2023-02-21T05:37:13;97902.78;;;8.44;73.52
49040;BME280;36811;49.732;13.402;2023-02-21T05:39:39;97900.94;;;8.45;73.17
49040;BME280;36811;49.732;13.402;2023-02-21T05:42:05;97901.25;;;8.48;73.66
49040;BME280;36811;49.732;13.402;2023-02-21T05:44:30;97892.81;;;8.51;73.15
49040;BME280;36811;49.732;13.402;2023-02-21T05:46:56;97891.00;;;8.52;73.70
49040;BME280;36811;49.732;13.402;2023-02-21T05:49:21;97883.34;;;8.39;73.35
49040;BME280;36811;49.732;13.402;2023-02-21T05:51:47;97888.72;;;8.27;74.57
49040;BME280;36811;49.732;13.402;2023-02-21T05:54:18;97891.91;;;8.17;74.79
49040;BME280;36811;49.732;13.402;2023-02-21T05:56:46;97899.84;;;8.01;75.29
49040;BME280;36811;49.732;13.402;2023-02-21T05:59:12;97895.47;;;7.95;75.70
49040;BME280;36811;49.732;13.402;2023-02-21T06:01:39;97900.19;;;7.93;75.41
49040;BME280;36811;49.732;13.402;2023-02-21T06:04:05;97909.66;;;7.89;76.17
49040;BME280;36811;49.732;13.402;2023-02-21T06:06:35;97903.69;;;7.82;76.17
49040;BME280;36811;49.732;13.402;2023-02-21T06:09:01;97909.47;;;7.79;76.09
49040;BME280;36811;49.732;13.402;2023-02-21T06:11:29;97908.53;;;7.73;76.57
49040;BME280;36811;49.732;13.402;2023-02-21T06:13:59;97909.56;;;7.72;76.67
49040;BME280;36811;49.732;13.402;2023-02-21T06:16:25;97908.75;;;7.72;76.41
49040;BME280;36811;49.732;13.402;2023-02-21T06:18:55;97907.28;;;7.76;76.39
49040;BME280;36811;49.732;13.402;2023-02-21T06:21:22;97906.34;;;7.82;76.30
49040;BME280;36811;49.732;13.402;2023-02-21T06:23:48;97910.69;;;7.88;76.36
49040;BME280;36811;49.732;13.402;2023-02-21T06:26:15;97917.25;;;7.97;75.95
49040;BME280;36811;49.732;13.402;2023-02-21T06:28:41;97920.88;;;8.07;76.09
49040;BME280;36811;49.732;13.402;2023-02-21T06:31:08;97919.03;;;8.08;76.09
49040;BME280;36811;49.732;13.402;2023-02-21T06:33:33;97913.50;;;8.09;75.36
49040;BME280;36811;49.732;13.402;2023-02-21T06:36:07;97913.84;;;8.13;75.37
49040;BME280;36811;49.732;13.402;2023-02-21T06:38:33;97923.16;;;8.15;75.77
49040;BME280;36811;49.732;13.402;2023-02-21T06:41:00;97940.97;;;8.20;75.45
49040;BME280;36811;49.732;13.402;2023-02-21T06:43:25;97918.75;;;8.21;75.68
49040;BME280;36811;49.732;13.402;2023-02-21T06:45:51;97920.59;;;8.20;74.97
49040;BME280;36811;49.732;13.402;2023-02-21T06:48:17;97921.06;;;8.17;74.95
49040;BME280;36811;49.732;13.402;2023-02-21T06:50:43;97921.06;;;8.17;74.98
49040;BME280;36811;49.732;13.402;2023-02-21T06:53:09;97922.03;;;8.11;75.45
49040;BME280;36811;49.732;13.402;2023-02-21T06:55:34;97926.06;;;8.14;75.11
49040;BME280;36811;49.732;13.402;2023-02-21T06:58:00;97919.38;;;8.11;75.66
49040;BME280;36811;49.732;13.402;2023-02-21T07:00:26;97930.19;;;8.10;75.30
49040;BME280;36811;49.732;13.402;2023-02-21T07:02:52;97929.06;;;8.06;75.60
49040;BME280;36811;49.732;13.402;2023-02-21T07:05:18;97935.63;;;8.03;75.90
49040;BME280;36811;49.732;13.402;2023-02-21T07:07:44;97936.75;;;8.07;75.73
49040;BME280;36811;49.732;13.402;2023-02-21T07:10:10;97951.38;;;8.10;75.52
49040;BME280;36811;49.732;13.402;2023-02-21T07:12:38;97949.34;;;8.12;75.57
49040;BME280;36811;49.732;13.402;2023-02-21T07:15:05;97954.81;;;8.22;75.54
49040;BME280;36811;49.732;13.402;2023-02-21T07:17:31;97959.06;;;8.35;74.91
49040;BME280;36811;49.732;13.402;2023-02-21T07:19:57;97963.84;;;8.49;74.55
49040;BME280;36811;49.732;13.402;2023-02-21T07:22:23;97968.69;;;8.69;74.71
49040;BME280;36811;49.732;13.402;2023-02-21T07:24:52;97967.69;;;8.86;73.82
49040;BME280;36811;49.732;13.402;2023-02-21T07:27:18;97972.94;;;9.15;73.23
49040;BME280;36811;49.732;13.402;2023-02-21T07:29:48;97960.16;;;9.28;71.89
49040;BME280;36811;49.732;13.402;2023-02-21T07:32:15;97971.06;;;9.32;71.64
49040;BME280;36811;49.732;13.402;2023-02-21T07:34:42;97974.94;;;9.41;71.86
49040;BME280;36811;49.732;13.402;2023-02-21T07:37:08;97978.44;;;9.46;71.73
49040;BME280;36811;49.732;13.402;2023-02-21T07:39:34;97978.22;;;9.48;71.57
49040;BME280;36811;49.732;13.402;2023-02-21T07:42:00;97969.78;;;9.51;71.10
49040;BME280;36811;49.732;13.402;2023-02-21T07:44:26;97968.63;;;9.47;71.29
49040;BME280;36811;49.732;13.402;2023-02-21T07:46:51;97972.25;;;9.57;71.41
49040;BME280;36811;49.732;13.402;2023-02-21T07:49:17;97967.56;;;9.65;70.48
49040;BME280;36811;49.732;13.402;2023-02-21T07:51:43;97966.13;;;9.57;70.91
49040;BME280;36811;49.732;13.402;2023-02-21T07:54:08;97967.25;;;9.61;71.15
49040;BME280;36811;49.732;13.402;2023-02-21T07:56:34;97966.06;;;9.52;70.75
49040;BME280;36811;49.732;13.402;2023-02-21T07:58:59;97978.69;;;9.45;71.16
49040;BME280;36811;49.732;13.402;2023-02-21T08:01:26;97972.09;;;9.47;70.88
49040;BME280;36811;49.732;13.402;2023-02-21T08:03:52;97976.59;;;9.47;70.73
49040;BME280;36811;49.732;13.402;2023-02-21T08:06:18;97967.44;;;9.38;71.28
49040;BME280;36811;49.732;13.402;2023-02-21T08:08:44;97969.13;;;9.44;70.94
49040;BME280;36811;49.732;13.402;2023-02-21T08:11:10;97973.22;;;9.51;71.40
49040;BME280;36811;49.732;13.402;2023-02-21T08:13:35;97967.81;;;9.63;71.23
49040;BME280;36811;49.732;13.402;2023-02-21T08:16:02;97972.78;;;9.76;70.86
49040;BME280;36811;49.732;13.402;2023-02-21T08:18:27;97973.19;;;10.06;70.65
49040;BME280;36811;49.732;13.402;2023-02-21T08:20:54;97972.81;;;10.41;69.56
49040;BME280;36811;49.732;13.402;2023-02-21T08:23:21;97974.88;;;10.61;68.80
49040;BME280;36811;49.732;13.402;2023-02-21T08:25:47;97974.47;;;10.74;67.75
49040;BME280;36811;49.732;13.402;2023-02-21T08:28:14;97974.16;;;10.70;67.51
49040;BME280;36811;49.732;13.402;2023-02-21T08:30:40;97977.69;;;10.76;67.61
49040;BME280;36811;49.732;13.402;2023-02-21T08:33:07;97972.19;;;10.82;67.36
49040;BME280;36811;49.732;13.402;2023-02-21T08:35:33;97979.44;;;10.92;67.65
49040;BME280;36811;49.732;13.402;2023-02-21T08:37:58;97979.03;;;11.42;66.97
49040;BME280;36811;49.732;13.402;2023-02-21T08:40:29;97979.47;;;11.66;65.72
49040;BME280;36811;49.732;13.402;2023-02-21T08:42:56;97975.84;;;11.77;64.64
49040;BME280;36811;49.732;13.402;2023-02-21T08:45:24;97982.50;;;11.79;64.93
49040;BME280;36811;49.732;13.402;2023-02-21T08:47:50;97978.47;;;11.72;64.53
49040;BME280;36811;49.732;13.402;2023-02-21T08:50:18;97977.97;;;11.75;64.43
49040;BME280;36811;49.732;13.402;2023-02-21T08:52:48;97991.53;;;11.68;64.00
49040;BME280;36811;49.732;13.402;2023-02-21T08:55:15;97987.19;;;11.62;63.77
49040;BME280;36811;49.732;13.402;2023-02-21T08:57:41;97981.53;;;11.95;63.79
49040;BME280;36811;49.732;13.402;2023-02-21T09:00:08;97994.41;;;12.08;63.11
49040;BME280;36811;49.732;13.402;2023-02-21T09:02:35;97988.53;;;12.06;62.68
49040;BME280;36811;49.732;13.402;2023-02-21T09:05:19;97995.16;;;11.99;63.23
49040;BME280;36811;49.732;13.402;2023-02-21T09:07:50;97991.78;;;12.19;62.37
49040;BME280;36811;49.732;13.402;2023-02-21T09:10:20;97990.97;;;12.13;62.86
49040;BME280;36811;49.732;13.402;2023-02-21T09:12:45;97997.34;;;12.12;62.11
49040;BME280;36811;49.732;13.402;2023-02-21T09:15:16;97993.56;;;11.98;62.50
49040;BME280;36811;49.732;13.402;2023-02-21T09:17:42;97994.16;;;12.15;62.44
49040;BME280;36811;49.732;13.402;2023-02-21T09:20:12;97988.25;;;12.03;62.27
49040;BME280;36811;49.732;13.402;2023-02-21T09:22:38;97981.25;;;11.92;62.03
49040;BME280;36811;49.732;13.402;2023-02-21T09:25:06;97988.38;;;11.76;63.02
49040;BME280;36811;49.732;13.402;2023-02-21T09:27:38;97980.63;;;11.75;62.58
49040;BME280;36811;49.732;13.402;2023-02-21T09:30:16;97979.59;;;11.81;63.18
49040;BME280;36811;49.732;13.402;2023-02-21T09:32:43;97982.06;;;11.92;61.88
49040;BME280;36811;49.732;13.402;2023-02-21T09:35:09;97992.56;;;12.09;61.59
49040;BME280;36811;49.732;13.402;2023-02-21T09:37:39;97991.59;;;12.40;62.24
49040;BME280;36811;49.732;13.402;2023-02-21T09:41:00;97988.13;;;12.40;61.24
49040;BME280;36811;49.732;13.402;2023-02-21T09:43:33;97984.13;;;12.47;61.17
49040;BME280;36811;49.732;13.402;2023-02-21T09:48:42;97997.94;;;12.24;61.33
49040;BME280;36811;49.732;13.402;2023-02-21T09:51:10;97979.78;;;12.16;61.54
49040;BME280;36811;49.732;13.402;2023-02-21T09:53:42;97984.81;;;12.13;61.91
49040;BME280;36811;49.732;13.402;2023-02-21T09:56:20;97973.41;;;12.27;61.64
49040;BME280;36811;49.732;13.402;2023-02-21T09:58:50;97982.50;;;12.31;62.27
49040;BME280;36811;49.732;13.402;2023-02-21T10:01:28;97982.81;;;12.50;61.31
49040;BME280;36811;49.732;13.402;2023-02-21T10:04:07;98005.50;;;12.47;61.60
49040;BME280;36811;49.732;13.402;2023-02-21T10:07:04;98004.13;;;12.40;61.97
49040;BME280;36811;49.732;13.402;2023-02-21T10:09:48;97978.44;;;12.14;61.87
49040;BME280;36811;49.732;13.402;2023-02-21T10:12:30;98004.56;;;11.70;62.93
49040;BME280;36811;49.732;13.402;2023-02-21T10:20:20;98019.81;;;11.42;63.90
49040;BME280;36811;49.732;13.402;2023-02-21T10:22:49;98013.97;;;11.45;64.30
49040;BME280;36811;49.732;13.402;2023-02-21T10:25:22;98009.22;;;11.53;63.84
49040;BME280;36811;49.732;13.402;2023-02-21T10:27:49;98013.44;;;11.48;64.21
49040;BME280;36811;49.732;13.402;2023-02-21T10:30:32;97999.41;;;11.58;63.72
49040;BME280;36811;49.732;13.402;2023-02-21T10:33:03;98015.44;;;11.63;63.09
49040;BME280;36811;49.732;13.402;2023-02-21T10:35:32;98004.59;;;11.75;62.96
49040;BME280;36811;49.732;13.402;2023-02-21T10:37:59;98013.81;;;11.94;63.08
49040;BME280;36811;49.732;13.402;2023-02-21T10:40:50;98012.81;;;12.10;62.39
49040;BME280;36811;49.732;13.402;2023-02-21T10:43:59;98008.69;;;12.39;61.78
49040;BME280;36811;49.732;13.402;2023-02-21T10:46:33;98008.69;;;12.39;61.47
49040;BME280;36811;49.732;13.402;2023-02-21T10:49:46;97997.88;;;12.09;61.45
49040;BME280;36811;49.732;13.402;2023-02-21T10:52:16;97999.44;;;12.05;61.65
49040;BME280;36811;49.732;13.402;2023-02-21T10:55:06;98005.22;;;11.87;61.47
49040;BME280;36811;49.732;13.402;2023-02-21T10:57:41;97994.50;;;11.82;62.19
49040;BME280;36811;49.732;13.402;2023-02-21T11:00:09;97999.84;;;11.82;62.56
49040;BME280;36811;49.732;13.402;2023-02-21T11:02:38;98003.69;;;11.96;62.07
49040;BME280;36811;49.732;13.402;2023-02-21T11:05:19;97993.56;;;12.03;61.63
49040;BME280;36811;49.732;13.402;2023-02-21T11:08:07;97982.06;;;11.92;62.41
49040;BME280;36811;49.732;13.402;2023-02-21T11:10:37;98002.81;;;11.85;62.01
49040;BME280;36811;49.732;13.402;2023-02-21T11:13:20;97995.94;;;11.99;62.67
49040;BME280;36811;49.732;13.402;2023-02-21T11:15:47;98001.03;;;12.01;62.00
49040;BME280;36811;49.732;13.402;2023-02-21T11:18:24;97970.06;;;11.95;62.39
49040;BME280;36811;49.732;13.402;2023-02-21T11:20:52;97996.75;;;12.00;62.35
49040;BME280;36811;49.732;13.402;2023-02-21T11:25:45;97995.28;;;12.24;62.03
49040;BME280;36811;49.732;13.402;2023-02-21T11:30:39;97993.97;;;12.27;62.51
49040;BME280;36811;49.732;13.402;2023-02-21T11:33:09;97991.34;;;12.42;62.71
49040;BME280;36811;49.732;13.402;2023-02-21T11:35:49;97987.59;;;12.43;61.84
49040;BME280;36811;49.732;13.402;2023-02-21T11:38:35;97961.13;;;12.21;61.63
49040;BME280;36811;49.732;13.402;2023-02-21T11:41:13;97982.94;;;12.08;62.17
49040;BME280;36811;49.732;13.402;2023-02-21T11:43:46;97974.41;;;12.06;63.19
49040;BME280;36811;49.732;13.402;2023-02-21T11:51:52;97964.81;;;12.10;62.68
49040;BME280;36811;49.732;13.402;2023-02-21T11:54:24;97952.53;;;12.04;62.89
49040;BME280;36811;49.732;13.402;2023-02-21T12:05:09;97956.91;;;12.40;62.48
49040;BME280;36811;49.732;13.402;2023-02-21T12:10:57;97948.41;;;12.48;62.47
49040;BME280;36811;49.732;13.402;2023-02-21T12:16:25;97943.03;;;12.33;61.66
49040;BME280;36811;49.732;13.402;2023-02-21T12:22:22;97943.00;;;12.28;62.32
49040;BME280;36811;49.732;13.402;2023-02-21T12:24:54;97931.56;;;12.38;62.61
49040;BME280;36811;49.732;13.402;2023-02-21T12:27:42;97941.16;;;12.34;62.73
49040;BME280;36811;49.732;13.402;2023-02-21T12:36:34;97926.00;;;12.44;61.95
49040;BME280;36811;49.732;13.402;2023-02-21T12:47:22;97903.31;;;12.42;62.18
49040;BME280;36811;49.732;13.402;2023-02-21T12:50:00;97908.91;;;12.40;62.51
49040;BME280;36811;49.732;13.402;2023-02-21T12:52:50;97904.38;;;12.41;62.57
49040;BME280;36811;49.732;13.402;2023-02-21T12:55:25;97909.44;;;12.42;62.42
49040;BME280;36811;49.732;13.402;2023-02-21T12:57:58;97894.25;;;12.48;62.79
49040;BME280;36811;49.732;13.402;2023-02-21T13:00:44;97894.50;;;12.46;62.78
49040;BME280;36811;49.732;13.402;2023-02-21T13:03:36;97905.72;;;12.58;62.41
49040;BME280;36811;49.732;13.402;2023-02-21T13:06:27;97902.53;;;12.56;62.31
49040;BME280;36811;49.732;13.402;2023-02-21T13:14:15;97896.91;;;12.43;63.27
49040;BME280;36811;49.732;13.402;2023-02-21T13:16:41;97896.38;;;12.56;63.11
49040;BME280;36811;49.732;13.402;2023-02-21T13:19:10;97895.56;;;12.45;62.52
49040;BME280;36811;49.732;13.402;2023-02-21T13:29:47;97881.41;;;12.35;64.03
49040;BME280;36811;49.732;13.402;2023-02-21T13:32:17;97879.53;;;12.30;63.51
49040;BME280;36811;49.732;13.402;2023-02-21T13:34:53;97882.19;;;12.30;63.69
49040;BME280;36811;49.732;13.402;2023-02-21T13:37:24;97876.34;;;12.38;63.88
49040;BME280;36811;49.732;13.402;2023-02-21T13:39:59;97875.84;;;12.41;63.07
49040;BME280;36811;49.732;13.402;2023-02-21T13:42:35;97879.56;;;12.45;63.74
49040;BME280;36811;49.732;13.402;2023-02-21T13:45:37;97872.66;;;12.49;63.87
49040;BME280;36811;49.732;13.402;2023-02-21T13:53:17;97867.03;;;12.56;63.73
49040;BME280;36811;49.732;13.402;2023-02-21T13:58:41;97873.19;;;12.56;63.47
49040;BME280;36811;49.732;13.402;2023-02-21T14:03:48;97869.44;;;12.52;63.48
49040;BME280;36811;49.732;13.402;2023-02-21T14:06:27;97859.56;;;12.53;64.05
49040;BME280;36811;49.732;13.402;2023-02-21T14:08:57;97869.44;;;12.52;64.27
49040;BME280;36811;49.732;13.402;2023-02-21T14:11:29;97871.03;;;12.58;63.89
49040;BME280;36811;49.732;13.402;2023-02-21T14:14:03;97864.91;;;12.68;63.88
49040;BME280;36811;49.732;13.402;2023-02-21T14:16:58;97868.38;;;12.68;64.38
49040;BME280;36811;49.732;13.402;2023-02-21T14:22:02;97853.69;;;12.66;64.03
49040;BME280;36811;49.732;13.402;2023-02-21T14:24:36;97854.50;;;12.77;64.00
49040;BME280;36811;49.732;13.402;2023-02-21T14:32:56;97845.41;;;13.23;63.11
49040;BME280;36811;49.732;13.402;2023-02-21T14:37:44;97842.19;;;13.26;63.26
49040;BME280;36811;49.732;13.402;2023-02-21T14:46:23;97835.47;;;13.44;62.59
49040;BME280;36811;49.732;13.402;2023-02-21T14:52:17;97833.31;;;13.56;62.29
49040;BME280;36811;49.732;13.402;2023-02-21T14:57:48;97827.13;;;13.60;62.29
49040;BME280;36811;49.732;13.402;2023-02-21T15:02:57;97824.03;;;13.92;61.60
49040;BME280;36811;49.732;13.402;2023-02-21T15:05:42;97820.97;;;14.14;61.60
49040;BME280;36811;49.732;13.402;2023-02-21T15:08:18;97811.06;;;14.14;60.52
49040;BME280;36811;49.732;13.402;2023-02-21T15:10:46;97803.41;;;13.97;61.38
49040;BME280;36811;49.732;13.402;2023-02-21T15:13:25;97817.88;;;13.91;61.11
49040;BME280;36811;49.732;13.402;2023-02-21T15:16:04;97812.59;;;13.76;61.10
49040;BME280;36811;49.732;13.402;2023-02-21T15:18:36;97815.84;;;13.73;61.58
49040;BME280;36811;49.732;13.402;2023-02-21T15:23:44;97820.63;;;13.76;62.12
49040;BME280;36811;49.732;13.402;2023-02-21T15:26:27;97815.28;;;13.76;61.48
49040;BME280;36811;49.732;13.402;2023-02-21T15:29:21;97813.78;;;13.55;62.32
49040;BME280;36811;49.732;13.402;2023-02-21T15:31:51;97807.94;;;13.48;62.33
49040;BME280;36811;49.732;13.402;2023-02-21T15:34:27;97806.38;;;13.32;62.30
49040;BME280;36811;49.732;13.402;2023-02-21T15:39:57;97822.19;;;13.13;62.60
49040;BME280;36811;49.732;13.402;2023-02-21T15:42:27;97819.25;;;12.95;63.43
49040;BME280;36811;49.732;13.402;2023-02-21T15:45:02;97816.84;;;12.88;63.86
49040;BME280;36811;49.732;13.402;2023-02-21T15:47:32;97815.28;;;12.87;64.34
49040;BME280;36811;49.732;13.402;2023-02-21T15:50:04;97821.38;;;12.88;64.83
49040;BME280;36811;49.732;13.402;2023-02-21T15:52:43;97818.19;;;12.91;64.33
49040;BME280;36811;49.732;13.402;2023-02-21T16:00:33;97816.84;;;12.83;64.41